Johnsonburg, Pennsylvania
Current Conditions -  °F | °C
As of 8:36 AM on Sunday 23 Nov 2014 (Local Time) from KBFD Reporting Station
Overcast Overcast  
Wind Chill: 39°   Ceiling: 3000
Heat Index: 42°   Visibility: 10mi
Dew Point: 32°   Wind: 5mph
Humidity: 67%   Direction: 190°S
Pressure: 30.09"   Gusts: NA
Location:  41.49°N, 78.68°W
Report Text: KBFD 231336Z AUTO 19004KT 10SM OVC030 06/00 A3009 RMK AO2 T00560000
Loading
Personal Weather Stations






























Interactive Weather Map New forecast layout! Learn more

10-Day Weather Forecast

Advertisements
Track Severe Weather on mobile